Time;durP1;ratioP1;P1;durP2;ratioP2;P2;SDS_P1;SDS_P2;PMS_P1;PMS_P2;Temp;Humidity;BMP_temperature;BMP_pressure;BME280_temperature;BME280_humidity;BME280_pressure;Samples;Min_cycle;Max_cycle;Signal;HPM_P1;HPM_P2
2022/08/10 00:00:27;;;;;;;0.30;0.30;;;;;;;19.57;65.02;102971.31;1990039;29;20518;-63
2022/08/10 00:01:30;;;;;;;0.30;0.30;;;;;;;19.58;64.99;102965.47;1990691;29;20065;-63
2022/08/10 00:02:33;;;;;;;0.30;0.30;;;;;;;19.56;65.02;102967.75;1990328;29;20448;-62
2022/08/10 00:03:37;;;;;;;0.20;0.20;;;;;;;19.56;65.01;102961.47;1990173;29;20066;-63
2022/08/10 00:04:39;;;;;;;0.30;0.30;;;;;;;19.53;65.00;102959.44;1991394;29;20057;-63
2022/08/10 00:05:42;;;;;;;0.30;0.30;;;;;;;19.52;64.92;102960.59;1990622;29;20486;-61
2022/08/10 00:06:56;;;;;;;0.30;0.30;;;;;;;19.50;64.99;102962.88;1990237;29;20453;-62
2022/08/10 00:07:59;;;;;;;0.30;0.30;;;;;;;19.47;65.24;102963.56;1990225;29;20063;-63
2022/08/10 00:09:01;;;;;;;0.30;0.30;;;;;;;19.46;65.38;102961.97;1990609;29;20053;-62
2022/08/10 00:10:06;;;;;;;0.30;0.30;;;;;;;19.46;65.58;102961.97;1990695;29;20582;-62
2022/08/10 00:11:11;;;;;;;0.30;0.30;;;;;;;19.43;65.38;102962.66;1990727;29;20341;-62
2022/08/10 00:12:18;;;;;;;0.30;0.30;;;;;;;19.41;65.76;102962.25;1990628;29;20082;-63
2022/08/10 00:13:25;;;;;;;0.30;0.30;;;;;;;19.44;65.68;102969.75;1990342;29;20360;-62
2022/08/10 00:14:28;;;;;;;0.30;0.30;;;;;;;19.41;65.76;102959.50;1991026;29;20481;-62
2022/08/10 00:15:32;;;;;;;0.30;0.30;;;;;;;19.43;65.60;102962.66;1990568;29;20054;-62
2022/08/10 00:16:54;;;;;;;0.30;0.30;;;;;;;19.37;65.88;102961.31;1991088;29;20416;-62
2022/08/10 00:17:59;;;;;;;0.30;0.30;;;;;;;19.39;65.79;102968.06;1990776;29;20413;-62
2022/08/10 00:19:01;;;;;;;0.30;0.30;;;;;;;19.40;66.02;102963.38;1990997;29;20050;-64
2022/08/10 00:20:06;;;;;;;0.40;0.40;;;;;;;19.41;65.93;102964.97;1991233;29;20085;-61
2022/08/10 00:21:11;;;;;;;0.30;0.30;;;;;;;19.39;65.90;102961.78;1990063;29;20050;-62
2022/08/10 00:22:16;;;;;;;0.30;0.30;;;;;;;19.40;65.91;102966.91;1989809;29;20061;-61
2022/08/10 00:23:20;;;;;;;0.30;0.30;;;;;;;19.40;65.85;102958.69;1991521;29;20055;-61
2022/08/10 00:24:23;;;;;;;0.30;0.30;;;;;;;19.39;65.98;102970.81;1991054;29;20058;-62
2022/08/10 00:25:26;;;;;;;0.30;0.30;;;;;;;19.39;65.93;102961.78;1991244;29;20054;-62
2022/08/10 00:26:29;;;;;;;0.30;0.30;;;;;;;19.37;65.80;102964.88;1990164;29;20058;-62
2022/08/10 00:27:53;;;;;;;0.30;0.30;;;;;;;19.31;66.03;102961.56;1982198;29;20490;-62
2022/08/10 00:29:06;;;;;;;0.30;0.30;;;;;;;19.26;66.62;102959.06;1984090;29;20470;-62
2022/08/10 00:30:16;;;;;;;0.30;0.30;;;;;;;19.25;66.50;102957.47;1991018;29;20080;-63
2022/08/10 00:31:19;;;;;;;0.30;0.30;;;;;;;19.25;66.51;102951.19;1991166;29;20090;-63
2022/08/10 00:32:22;;;;;;;0.30;0.30;;;;;;;19.21;66.51;102956.56;1990860;29;20046;-62
2022/08/10 00:33:26;;;;;;;0.30;0.30;;;;;;;19.23;66.68;102954.25;1990948;29;20475;-63
2022/08/10 00:34:32;;;;;;;0.30;0.30;;;;;;;19.23;66.56;102954.25;1990054;29;20400;-61
2022/08/10 00:35:35;;;;;;;0.40;0.40;;;;;;;19.22;66.75;102949.13;1990289;29;20050;-61
2022/08/10 00:36:38;;;;;;;0.30;0.30;;;;;;;19.19;66.79;102947.09;1982656;29;20599;-62
2022/08/10 00:37:43;;;;;;;0.30;0.30;;;;;;;19.17;66.97;102952.91;1982816;29;20455;-61
2022/08/10 00:38:58;;;;;;;0.40;0.40;;;;;;;19.11;66.91;102957.06;1990580;29;20113;-62
2022/08/10 00:40:02;;;;;;;0.32;0.32;;;;;;;19.11;67.03;102951.56;1990404;29;20507;-62
2022/08/10 00:41:05;;;;;;;0.40;0.40;;;;;;;19.10;67.00;102944.50;1990586;29;20049;-62
2022/08/10 00:42:14;;;;;;;0.40;0.40;;;;;;;19.12;67.13;102957.84;1990253;29;20102;-61
2022/08/10 00:43:17;;;;;;;0.40;0.40;;;;;;;19.08;67.25;102948.72;1990317;29;20066;-62
2022/08/10 00:44:26;;;;;;;0.40;0.40;;;;;;;19.08;67.55;102952.28;1990482;29;20110;-61
2022/08/10 00:45:29;;;;;;;0.40;0.40;;;;;;;19.08;67.62;102952.28;1990365;29;20125;-61
2022/08/10 00:46:33;;;;;;;0.40;0.40;;;;;;;19.12;67.68;102949.66;1989306;29;20631;-61
2022/08/10 00:47:36;;;;;;;0.40;0.40;;;;;;;19.11;67.68;102948.84;1990475;29;20065;-62
2022/08/10 00:48:40;;;;;;;0.40;0.40;;;;;;;19.10;67.60;102951.94;1990431;29;20062;-60
2022/08/10 00:49:43;;;;;;;0.40;0.40;;;;;;;19.10;67.41;102952.72;1990924;29;20491;-60
2022/08/10 00:50:47;;;;;;;0.38;0.38;;;;;;;19.11;67.54;102951.56;1990670;29;20061;-62
2022/08/10 00:51:50;;;;;;;0.40;0.40;;;;;;;19.08;67.90;102946.00;1990178;29;20054;-61
2022/08/10 00:52:55;;;;;;;0.40;0.40;;;;;;;19.09;67.83;102953.84;1990268;29;20511;-61
2022/08/10 00:53:58;;;;;;;0.35;0.35;;;;;;;19.07;68.29;102947.94;1989447;29;20054;-62
2022/08/10 00:55:03;;;;;;;0.40;0.40;;;;;;;19.07;68.22;102958.91;1990699;29;20607;-62
2022/08/10 00:56:07;;;;;;;0.40;0.40;;;;;;;19.05;68.09;102958.44;1990724;29;20054;-61
2022/08/10 00:57:35;;;;;;;0.40;0.40;;;;;;;19.02;68.32;102953.66;1990761;29;20050;-62
2022/08/10 00:58:38;;;;;;;0.30;0.30;;;;;;;19.01;68.62;102951.28;1990844;29;20579;-63
2022/08/10 00:59:42;;;;;;;0.40;0.40;;;;;;;19.01;68.86;102956.75;1990259;29;20063;-61
2022/08/10 01:01:02;;;;;;;0.30;0.30;;;;;;;18.95;68.89;102953.44;1990768;29;20737;-62
2022/08/10 01:02:05;;;;;;;0.38;0.38;;;;;;;19.00;68.66;102955.13;1990845;29;20054;-61
2022/08/10 01:03:13;;;;;;;0.40;0.40;;;;;;;18.96;68.45;102952.28;1989648;29;20054;-61
2022/08/10 01:04:16;;;;;;;0.30;0.30;;;;;;;18.95;68.43;102958.91;1990020;29;20069;-64
2022/08/10 01:06:01;;;;;;;0.32;0.32;;;;;;;18.87;68.81;102951.63;1989839;29;20063;-61
2022/08/10 01:07:32;;;;;;;0.30;0.30;;;;;;;18.81;69.18;102952.22;1989794;29;20054;-61
2022/08/10 01:08:44;;;;;;;0.35;0.35;;;;;;;18.84;68.95;102959.72;1988310;29;20459;-63
2022/08/10 01:09:58;;;;;;;0.20;0.20;;;;;;;18.84;69.12;102954.25;1989527;29;20054;-61
2022/08/10 01:11:09;;;;;;;0.38;0.38;;;;;;;18.80;69.61;102951.44;1989785;29;20145;-62
2022/08/10 01:12:38;;;;;;;0.40;0.40;;;;;;;18.79;69.37;102960.75;1989572;29;20066;-61
2022/08/10 01:13:49;;;;;;;0.40;0.40;;;;;;;18.78;69.15;102953.72;1989300;29;20057;-62
2022/08/10 01:14:59;;;;;;;0.32;0.32;;;;;;;18.78;69.57;102953.72;1990251;29;20397;-61
2022/08/10 01:16:05;;;;;;;;;;;;;;;18.59;70.07;102937.09;1990141;29;20661;-61
2022/08/10 01:17:14;;;;;;;0.30;0.30;;;;;;;18.68;70.01;102942.44;1989658;29;19972;-63
2022/08/10 01:18:24;;;;;;;0.40;0.40;;;;;;;18.70;70.06;102949.16;1989443;29;20050;-63
2022/08/10 01:19:43;;;;;;;0.38;0.38;;;;;;;18.69;69.92;102944.84;1989896;29;20058;-62
2022/08/10 01:21:07;;;;;;;0.40;0.40;;;;;;;18.65;70.36;102946.66;1990113;29;20438;-61
2022/08/10 01:22:27;;;;;;;0.30;0.30;;;;;;;18.64;69.94;102942.31;1989624;29;20472;-62
2022/08/10 01:23:46;;;;;;;;;;;;;;;18.48;70.84;102949.63;1990641;29;20134;-61
2022/08/10 01:25:17;;;;;;;0.32;0.32;;;;;;;18.53;70.42;102946.69;1989567;29;19989;-62
2022/08/10 01:26:36;;;;;;;0.30;0.30;;;;;;;18.53;70.53;102943.94;1990121;29;20055;-61
2022/08/10 01:27:54;;;;;;;0.30;0.30;;;;;;;18.55;70.49;102947.09;1983247;29;20062;-61
2022/08/10 01:29:11;;;;;;;0.40;0.40;;;;;;;18.56;70.30;102939.72;1985372;29;21544;-63
2022/08/10 01:30:19;;;;;;;0.32;0.32;;;;;;;18.57;70.42;102942.09;1990028;29;20157;-61
2022/08/10 01:31:29;;;;;;;0.30;0.30;;;;;;;18.57;70.19;102944.84;1990243;29;20066;-62
2022/08/10 01:32:46;;;;;;;0.38;0.38;;;;;;;18.58;69.99;102943.72;1990569;29;20093;-61
2022/08/10 01:33:53;;;;;;;0.40;0.40;;;;;;;18.60;70.27;102949.63;1990286;29;20070;-62
2022/08/10 01:35:12;;;;;;;0.40;0.40;;;;;;;18.57;70.41;102947.56;1990407;29;20058;-61
2022/08/10 01:36:18;;;;;;;0.38;0.38;;;;;;;18.57;70.48;102950.31;1989827;29;20129;-61
2022/08/10 01:37:39;;;;;;;0.30;0.30;;;;;;;18.56;70.18;102945.97;1989995;29;20098;-61
2022/08/10 01:38:47;;;;;;;0.30;0.30;;;;;;;18.57;70.24;102942.09;1990223;29;20054;-63
2022/08/10 01:39:55;;;;;;;0.30;0.30;;;;;;;18.55;70.55;102949.06;1983270;29;20131;-61
2022/08/10 01:41:05;;;;;;;0.30;0.30;;;;;;;18.56;70.73;102939.72;1984237;29;20548;-63
2022/08/10 01:42:12;;;;;;;0.40;0.40;;;;;;;18.55;70.26;102943.59;1990128;29;20141;-61
2022/08/10 01:43:17;;;;;;;0.30;0.30;;;;;;;18.47;71.04;102941.78;1990057;29;20096;-61
2022/08/10 01:44:32;;;;;;;0.40;0.40;;;;;;;18.37;71.10;102943.00;1989556;29;20093;-61
2022/08/10 01:45:41;;;;;;;0.40;0.40;;;;;;;18.32;71.58;102937.75;1990120;29;20081;-62
2022/08/10 01:46:51;;;;;;;0.30;0.30;;;;;;;18.31;71.75;102938.91;1989402;29;20067;-61
2022/08/10 01:49:23;;;;;;;0.40;0.40;;;;;;;18.28;71.55;102945.06;1989880;29;20138;-61
2022/08/10 01:50:28;;;;;;;0.40;0.40;;;;;;;18.31;71.55;102949.03;1990523;29;20062;-63
2022/08/10 01:51:36;;;;;;;0.40;0.40;;;;;;;18.33;71.50;102957.69;1990414;29;20086;-63
2022/08/10 01:52:41;;;;;;;0.40;0.40;;;;;;;18.31;71.36;102960.78;1989924;29;20178;-64
2022/08/10 01:53:51;;;;;;;0.40;0.40;;;;;;;18.36;71.43;102946.84;1989441;29;20058;-62
2022/08/10 01:54:55;;;;;;;0.40;0.40;;;;;;;18.30;71.31;102953.69;1989043;29;20086;-60
2022/08/10 01:56:00;;;;;;;0.40;0.40;;;;;;;18.34;71.39;102954.63;1989340;29;20523;-64
2022/08/10 01:57:04;;;;;;;0.30;0.30;;;;;;;18.34;71.40;102949.16;1990784;29;20503;-61
2022/08/10 01:58:08;;;;;;;0.30;0.30;;;;;;;18.35;70.91;102950.75;1989507;29;20574;-62
2022/08/10 01:59:15;;;;;;;0.32;0.32;;;;;;;18.35;71.15;102945.28;1990118;29;20668;-60
2022/08/10 02:00:19;;;;;;;0.30;0.30;;;;;;;18.34;71.20;102953.81;1990373;29;20659;-61
2022/08/10 02:01:26;;;;;;;0.30;0.30;;;;;;;18.35;70.98;102956.22;1989589;29;20118;-60
2022/08/10 02:02:31;;;;;;;0.40;0.40;;;;;;;18.35;71.01;102950.75;1990406;29;20086;-62
2022/08/10 02:03:36;;;;;;;0.40;0.40;;;;;;;18.35;70.73;102953.47;1990580;29;20103;-61
2022/08/10 02:05:01;;;;;;;0.40;0.40;;;;;;;18.30;70.27;102950.97;1990729;29;20054;-62
2022/08/10 02:06:06;;;;;;;0.32;0.32;;;;;;;18.30;70.49;102947.44;1982021;29;20078;-62
2022/08/10 02:07:14;;;;;;;0.30;0.30;;;;;;;18.30;70.71;102947.44;1982680;29;20082;-61
2022/08/10 02:08:19;;;;;;;0.32;0.32;;;;;;;18.29;70.86;102945.84;1990180;29;20088;-61
2022/08/10 02:09:26;;;;;;;0.40;0.40;;;;;;;18.28;70.99;102947.78;1989817;29;20491;-61
2022/08/10 02:10:31;;;;;;;0.40;0.40;;;;;;;18.28;70.93;102950.53;1988637;29;20146;-62
2022/08/10 02:11:34;;;;;;;0.40;0.40;;;;;;;18.28;71.07;102956.00;1989751;29;20524;-62
2022/08/10 02:12:58;;;;;;;0.40;0.40;;;;;;;18.26;71.00;102952.78;1990561;29;20107;-63
2022/08/10 02:14:03;;;;;;;0.40;0.40;;;;;;;18.27;71.06;102942.63;1990288;29;20055;-61
2022/08/10 02:15:07;;;;;;;0.40;0.40;;;;;;;18.27;71.04;102954.38;1990223;29;20058;-61
2022/08/10 02:16:11;;;;;;;0.40;0.40;;;;;;;18.25;71.09;102942.97;1990030;29;20531;-62
2022/08/10 02:17:19;;;;;;;0.40;0.40;;;;;;;18.25;70.98;102948.44;1989199;29;20051;-63
2022/08/10 02:18:46;;;;;;;0.40;0.40;;;;;;;18.18;71.29;102945.50;1990220;29;20054;-62
2022/08/10 02:19:49;;;;;;;0.40;0.40;;;;;;;18.21;71.21;102949.47;1989655;29;20062;-62
2022/08/10 02:20:54;;;;;;;0.40;0.40;;;;;;;18.22;71.25;102948.34;1990455;29;20514;-62
2022/08/10 02:21:58;;;;;;;0.40;0.40;;;;;;;18.20;71.55;102945.16;1989599;29;20050;-62
2022/08/10 02:23:25;;;;;;;0.30;0.30;;;;;;;18.17;71.68;102949.34;1990180;29;20089;-62
2022/08/10 02:24:28;;;;;;;0.30;0.30;;;;;;;18.18;71.68;102945.50;1989688;29;20065;-62
2022/08/10 02:25:33;;;;;;;0.40;0.40;;;;;;;18.19;71.76;102947.09;1989605;29;20086;-62
2022/08/10 02:26:44;;;;;;;0.40;0.40;;;;;;;18.15;71.97;102945.38;1989706;29;20403;-62
2022/08/10 02:27:51;;;;;;;0.30;0.30;;;;;;;18.18;71.56;102950.97;1989686;29;20093;-61
2022/08/10 02:28:54;;;;;;;0.32;0.32;;;;;;;18.16;72.59;102947.75;1990032;29;20077;-62
2022/08/10 02:29:57;;;;;;;0.32;0.32;;;;;;;18.16;71.80;102947.75;1981805;29;20205;-61
2022/08/10 02:31:04;;;;;;;0.40;0.40;;;;;;;18.16;71.68;102950.50;1982300;29;20055;-62
2022/08/10 02:32:12;;;;;;;0.30;0.30;;;;;;;18.14;71.86;102946.53;1989430;29;20050;-62
2022/08/10 02:33:32;;;;;;;0.30;0.30;;;;;;;18.11;71.76;102950.72;1989885;29;20057;-61
2022/08/10 02:34:41;;;;;;;0.30;0.30;;;;;;;18.11;71.96;102944.47;1990124;29;20058;-62
2022/08/10 02:35:45;;;;;;;0.40;0.40;;;;;;;18.12;72.09;102941.41;1989354;29;20157;-62
2022/08/10 02:37:00;;;;;;;0.40;0.40;;;;;;;18.09;72.17;102942.06;1989985;29;20134;-61
2022/08/10 02:38:07;;;;;;;0.40;0.40;;;;;;;18.10;72.33;102949.13;1990011;29;20526;-61
2022/08/10 02:39:11;;;;;;;0.40;0.40;;;;;;;18.09;71.96;102946.75;1989427;29;20054;-61
2022/08/10 02:40:15;;;;;;;0.40;0.40;;;;;;;18.09;72.23;102941.28;1989014;29;20059;-63
2022/08/10 02:41:42;;;;;;;0.40;0.40;;;;;;;18.05;72.67;102941.16;1989542;29;20069;-64
2022/08/10 02:43:19;;;;;;;0.40;0.40;;;;;;;18.00;72.61;102946.84;1989071;29;20054;-61
2022/08/10 02:44:50;;;;;;;0.40;0.40;;;;;;;17.97;72.67;102939.31;1989843;29;20062;-62
2022/08/10 02:46:20;;;;;;;0.40;0.40;;;;;;;17.96;72.81;102939.66;1989076;29;20062;-63
2022/08/10 02:47:34;;;;;;;0.40;0.40;;;;;;;17.94;72.79;102942.72;1990274;29;20460;-64
2022/08/10 02:49:00;;;;;;;0.40;0.40;;;;;;;17.92;73.05;102945.00;1989043;29;20188;-62
2022/08/10 02:50:25;;;;;;;0.40;0.40;;;;;;;17.88;72.95;102939.44;1989925;29;20137;-62
2022/08/10 02:51:39;;;;;;;0.40;0.40;;;;;;;17.92;72.82;102948.53;1988746;29;20527;-64
2022/08/10 02:53:10;;;;;;;0.40;0.40;;;;;;;17.90;73.11;102944.56;1989194;29;20133;-61
2022/08/10 02:54:38;;;;;;;0.40;0.40;;;;;;;17.91;73.10;102937.94;1989310;29;20400;-61
2022/08/10 02:55:47;;;;;;;0.30;0.30;;;;;;;17.90;72.54;102934.41;1990199;29;20078;-61
2022/08/10 02:56:54;;;;;;;0.40;0.40;;;;;;;17.91;72.84;102929.75;1989190;29;20050;-62
2022/08/10 02:58:02;;;;;;;0.30;0.30;;;;;;;17.89;73.06;102927.34;1988540;29;20054;-62
2022/08/10 02:59:23;;;;;;;0.30;0.30;;;;;;;17.88;73.03;102935.88;1990259;29;20238;-63
2022/08/10 03:00:26;;;;;;;0.30;0.30;;;;;;;17.87;73.10;102935.09;1990409;29;20066;-62
2022/08/10 03:01:33;;;;;;;0.30;0.30;;;;;;;17.87;73.49;102932.34;1989209;29;20129;-62
2022/08/10 03:02:40;;;;;;;0.30;0.30;;;;;;;17.86;73.18;102927.22;1989903;29;20054;-62
2022/08/10 03:03:48;;;;;;;0.32;0.32;;;;;;;17.83;73.67;102928.72;1990095;29;20704;-62
2022/08/10 03:04:55;;;;;;;0.30;0.30;;;;;;;17.82;73.68;102929.06;1990002;29;20547;-61
2022/08/10 03:06:05;;;;;;;0.40;0.40;;;;;;;17.82;73.52;102932.56;1990303;29;20047;-62
2022/08/10 03:07:12;;;;;;;0.30;0.30;;;;;;;17.82;73.85;102931.78;1989384;29;20058;-62
2022/08/10 03:08:19;;;;;;;0.40;0.40;;;;;;;17.82;73.66;102927.09;1989101;29;20066;-62
2022/08/10 03:09:25;;;;;;;0.40;0.40;;;;;;;17.83;73.80;102938.84;1981161;29;20157;-62
2022/08/10 03:10:31;;;;;;;0.30;0.30;;;;;;;17.83;73.92;102936.09;1981833;29;20520;-62
2022/08/10 03:11:36;;;;;;;0.40;0.40;;;;;;;17.83;73.57;102930.63;1989262;29;20078;-62
2022/08/10 03:13:03;;;;;;;0.30;0.30;;;;;;;17.79;73.66;102927.00;1980892;29;20799;-63
2022/08/10 03:14:09;;;;;;;0.30;0.30;;;;;;;17.80;73.53;102926.66;1981418;29;20055;-62
2022/08/10 03:15:16;;;;;;;0.30;0.30;;;;;;;17.79;73.30;102933.25;1989984;29;20106;-62
2022/08/10 03:16:21;;;;;;;0.30;0.30;;;;;;;17.80;73.68;102932.13;1988971;29;20113;-63
2022/08/10 03:17:25;;;;;;;0.30;0.30;;;;;;;17.77;73.64;102932.00;1989015;29;20165;-62
2022/08/10 03:18:28;;;;;;;0.30;0.30;;;;;;;17.78;73.81;102931.66;1988638;29;20118;-63
2022/08/10 03:19:34;;;;;;;0.40;0.40;;;;;;;17.79;73.20;102935.19;1988231;29;20066;-61
2022/08/10 03:20:59;;;;;;;0.30;0.30;;;;;;;17.74;73.90;102927.22;1989281;29;20492;-61
2022/08/10 03:22:02;;;;;;;0.30;0.30;;;;;;;17.74;74.01;102925.25;1989679;29;20058;-63
2022/08/10 03:23:09;;;;;;;0.38;0.38;;;;;;;17.76;73.78;102927.66;1990200;29;20412;-64
2022/08/10 03:24:11;;;;;;;0.30;0.30;;;;;;;17.73;74.03;102929.13;1989416;29;20065;-62
2022/08/10 03:25:35;;;;;;;0.30;0.30;;;;;;;17.68;74.60;102925.81;1989221;29;20062;-62
2022/08/10 03:26:38;;;;;;;0.32;0.32;;;;;;;17.70;74.46;102929.81;1989395;29;20646;-62
2022/08/10 03:27:42;;;;;;;0.30;0.30;;;;;;;17.73;74.48;102928.31;1989684;29;20140;-62
2022/08/10 03:28:45;;;;;;;0.32;0.32;;;;;;;17.72;74.32;102932.22;1980838;29;20061;-62
2022/08/10 03:29:48;;;;;;;0.40;0.40;;;;;;;17.71;74.54;102933.34;1981669;29;20547;-65
2022/08/10 03:31:12;;;;;;;0.30;0.30;;;;;;;17.70;74.48;102934.47;1990146;29;20086;-64
2022/08/10 03:32:15;;;;;;;0.40;0.40;;;;;;;17.69;74.71;102925.50;1990195;29;20054;-62
2022/08/10 03:33:20;;;;;;;0.40;0.40;;;;;;;17.71;74.50;102933.34;1989154;29;20473;-62
2022/08/10 03:34:23;;;;;;;0.30;0.30;;;;;;;17.72;74.34;102934.94;1988967;29;20133;-62
2022/08/10 03:35:35;;;;;;;0.30;0.30;;;;;;;17.69;74.47;102932.88;1989655;29;20557;-62
2022/08/10 03:36:40;;;;;;;0.38;0.38;;;;;;;17.70;74.39;102924.34;1989837;29;20062;-62
2022/08/10 03:37:47;;;;;;;0.40;0.40;;;;;;;17.72;74.80;102943.13;1990014;29;20058;-63
2022/08/10 03:38:57;;;;;;;0.30;0.30;;;;;;;17.68;74.55;102937.53;1990023;29;20107;-62
2022/08/10 03:40:02;;;;;;;0.30;0.30;;;;;;;17.71;74.64;102927.88;1989925;29;20456;-62
2022/08/10 03:41:07;;;;;;;0.45;0.45;;;;;;;17.70;74.44;102929.81;1989716;29;20088;-62
2022/08/10 03:42:15;;;;;;;0.30;0.30;;;;;;;17.67;74.43;102926.94;1990061;29;20138;-63
2022/08/10 03:43:19;;;;;;;0.40;0.40;;;;;;;17.66;74.80;102930.84;1989584;29;20519;-62
2022/08/10 03:44:27;;;;;;;0.30;0.30;;;;;;;17.64;74.79;102927.63;1990240;29;20296;-62
2022/08/10 03:45:31;;;;;;;0.30;0.30;;;;;;;17.61;75.32;102923.66;1989802;29;20607;-64
2022/08/10 03:46:55;;;;;;;0.40;0.40;;;;;;;17.59;75.19;102927.84;1990078;29;20118;-63
2022/08/10 03:47:58;;;;;;;0.40;0.40;;;;;;;17.60;74.99;102934.91;1989868;29;20109;-63
2022/08/10 03:49:03;;;;;;;0.40;0.40;;;;;;;17.61;74.91;102931.84;1989786;29;20074;-64
2022/08/10 03:50:07;;;;;;;0.40;0.40;;;;;;;17.62;75.15;102935.34;1989753;29;20802;-63
2022/08/10 03:51:31;;;;;;;0.40;0.40;;;;;;;17.54;75.61;102931.59;1989523;29;20171;-63
2022/08/10 03:52:35;;;;;;;0.40;0.40;;;;;;;17.56;74.99;102923.88;1989613;29;20054;-62
2022/08/10 03:53:39;;;;;;;0.50;0.50;;;;;;;17.56;75.57;102931.25;1989694;29;20527;-63
2022/08/10 03:55:02;;;;;;;0.50;0.50;;;;;;;17.53;75.52;102930.00;1989981;29;20111;-62
2022/08/10 03:56:06;;;;;;;0.50;0.50;;;;;;;17.54;75.54;102926.13;1989705;29;20487;-62
2022/08/10 03:57:29;;;;;;;0.43;0.43;;;;;;;17.50;75.90;102927.13;1989658;29;20054;-61
2022/08/10 03:58:31;;;;;;;0.50;0.50;;;;;;;17.54;75.80;102930.78;1989126;29;20393;-61
2022/08/10 03:59:35;;;;;;;0.40;0.40;;;;;;;17.55;75.69;102930.44;1989634;29;20062;-62
2022/08/10 04:00:37;;;;;;;0.40;0.40;;;;;;;17.55;75.73;102926.94;1989441;29;20433;-62
2022/08/10 04:01:41;;;;;;;0.40;0.40;;;;;;;17.54;75.58;102930.78;1988963;29;20060;-63
2022/08/10 04:03:04;;;;;;;0.43;0.43;;;;;;;17.50;75.68;102925.22;1989024;29;20062;-62
2022/08/10 04:04:07;;;;;;;0.40;0.40;;;;;;;17.50;76.05;102919.75;1989926;29;20165;-62
2022/08/10 04:05:15;;;;;;;0.40;0.40;;;;;;;17.50;75.83;102925.22;1989425;29;20474;-62
2022/08/10 04:06:17;;;;;;;0.50;0.50;;;;;;;17.51;75.49;102926.00;1989053;29;20090;-62
2022/08/10 04:07:21;;;;;;;0.47;0.47;;;;;;;17.49;75.65;102925.56;1982150;29;20538;-62
2022/08/10 04:08:25;;;;;;;0.50;0.50;;;;;;;17.50;75.64;102918.94;1982288;29;20051;-62
2022/08/10 04:09:29;;;;;;;0.50;0.50;;;;;;;17.51;75.79;102923.25;1990172;29;20518;-62
2022/08/10 04:10:52;;;;;;;0.50;0.50;;;;;;;17.48;76.07;102923.94;1989565;29;20136;-62
2022/08/10 04:11:55;;;;;;;0.40;0.40;;;;;;;17.50;76.05;102924.41;1988814;29;20058;-62
2022/08/10 04:12:58;;;;;;;0.50;0.50;;;;;;;17.51;75.85;102915.88;1989686;29;20058;-62
2022/08/10 04:13:59;;;;;;;0.40;0.40;;;;;;;17.51;75.86;102923.25;1988969;29;20129;-62
2022/08/10 04:15:03;;;;;;;0.50;0.50;;;;;;;17.50;75.85;102919.75;1988763;29;20055;-62
2022/08/10 04:16:05;;;;;;;0.50;0.50;;;;;;;17.50;76.29;102913.47;1989549;29;20503;-61
2022/08/10 04:17:09;;;;;;;0.52;0.52;;;;;;;17.49;76.50;102912.66;1989545;29;20555;-62
2022/08/10 04:18:15;;;;;;;0.60;0.60;;;;;;;17.48;76.67;102918.47;1989365;29;20102;-62
2022/08/10 04:19:19;;;;;;;0.50;0.50;;;;;;;17.49;76.69;102914.63;1989901;29;20404;-62
2022/08/10 04:20:28;;;;;;;0.50;0.50;;;;;;;17.47;77.08;102914.94;1982328;29;20099;-61
2022/08/10 04:21:38;;;;;;;0.50;0.50;;;;;;;17.44;76.95;102909.34;1983467;29;20528;-62
2022/08/10 04:22:42;;;;;;;0.60;0.60;;;;;;;17.44;76.60;102914.81;1991226;29;20058;-62
2022/08/10 04:23:49;;;;;;;0.60;0.60;;;;;;;17.42;76.80;102917.88;1990675;29;20086;-62
2022/08/10 04:24:58;;;;;;;0.60;0.60;;;;;;;17.39;77.32;102923.19;1990460;29;20047;-61
2022/08/10 04:26:01;;;;;;;0.60;0.60;;;;;;;17.38;77.41;102927.03;1990221;29;20058;-61
2022/08/10 04:27:03;;;;;;;0.50;0.50;;;;;;;17.36;77.39;102926.59;1989785;29;20404;-62
2022/08/10 04:28:06;;;;;;;0.50;0.50;;;;;;;17.37;77.14;102925.47;1991178;29;20095;-61
2022/08/10 04:29:09;;;;;;;0.50;0.50;;;;;;;17.35;77.27;102922.25;1990617;29;20195;-62
2022/08/10 04:30:13;;;;;;;0.50;0.50;;;;;;;17.34;77.93;102920.66;1990860;29;20693;-61
2022/08/10 04:31:20;;;;;;;0.60;0.60;;;;;;;17.32;77.79;102917.47;1990300;29;20088;-62
2022/08/10 04:32:25;;;;;;;0.60;0.60;;;;;;;17.31;78.11;102922.16;1990766;29;20050;-62
2022/08/10 04:33:30;;;;;;;0.60;0.60;;;;;;;17.30;77.97;102917.81;1991037;29;20133;-62
2022/08/10 04:34:34;;;;;;;0.60;0.60;;;;;;;17.31;77.88;102921.34;1990832;29;20069;-61
2022/08/10 04:35:38;;;;;;;0.60;0.60;;;;;;;17.31;77.84;102916.69;1990733;29;20058;-61
2022/08/10 04:36:41;;;;;;;0.60;0.60;;;;;;;17.31;78.16;102924.06;1990923;29;20511;-62
2022/08/10 04:37:46;;;;;;;0.60;0.60;;;;;;;17.31;78.05;102919.41;1990626;29;20077;-61
2022/08/10 04:38:51;;;;;;;0.70;0.70;;;;;;;17.32;77.99;102920.19;1990526;29;20062;-63
2022/08/10 04:39:55;;;;;;;0.60;0.60;;;;;;;17.32;78.07;102920.19;1990271;29;20058;-62
2022/08/10 04:40:57;;;;;;;0.60;0.60;;;;;;;17.34;77.85;102920.66;1991138;29;20499;-62
2022/08/10 04:42:00;;;;;;;0.60;0.60;;;;;;;17.33;78.08;102919.09;1991003;29;20536;-62
2022/08/10 04:43:07;;;;;;;0.60;0.60;;;;;;;17.37;77.87;102920.00;1991030;29;20047;-61
2022/08/10 04:44:14;;;;;;;0.60;0.60;;;;;;;17.31;78.42;102915.88;1990506;29;20453;-61
2022/08/10 04:45:17;;;;;;;0.65;0.65;;;;;;;17.34;78.34;102917.94;1991124;29;20161;-62
2022/08/10 04:46:19;;;;;;;0.60;0.60;;;;;;;17.33;78.13;102917.13;1990524;29;20511;-62
2022/08/10 04:47:42;;;;;;;0.52;0.52;;;;;;;17.29;78.21;102913.50;1990804;29;20058;-62
2022/08/10 04:49:04;;;;;;;0.60;0.60;;;;;;;17.27;78.41;102923.94;1990485;29;20054;-62
2022/08/10 04:50:27;;;;;;;0.60;0.60;;;;;;;17.27;78.38;102917.66;1990663;29;20480;-63
2022/08/10 04:51:30;;;;;;;0.50;0.50;;;;;;;17.31;78.29;102919.41;1990822;29;20050;-62
2022/08/10 04:52:32;;;;;;;0.50;0.50;;;;;;;17.38;77.92;102921.59;1990292;29;20416;-63
2022/08/10 04:53:36;;;;;;;0.60;0.60;;;;;;;17.39;77.74;102918.53;1990624;29;20554;-61
2022/08/10 04:54:59;;;;;;;0.50;0.50;;;;;;;17.39;77.79;102920.47;1989877;29;20138;-62
2022/08/10 04:56:02;;;;;;;0.60;0.60;;;;;;;17.41;77.96;102923.66;1990560;29;20062;-64
2022/08/10 04:57:04;;;;;;;0.60;0.60;;;;;;;17.41;77.93;102915.47;1990727;29;20050;-62
2022/08/10 04:58:07;;;;;;;0.60;0.60;;;;;;;17.45;77.98;102919.16;1990189;29;20085;-64
2022/08/10 04:59:11;;;;;;;0.60;0.60;;;;;;;17.49;77.75;102922.81;1990611;29;20130;-62
2022/08/10 05:00:14;;;;;;;0.70;0.70;;;;;;;17.48;77.94;102913.00;1990129;29;20575;-61
2022/08/10 05:01:19;;;;;;;0.70;0.70;;;;;;;17.46;78.44;102918.81;1990443;29;20499;-62
2022/08/10 05:02:26;;;;;;;0.50;0.50;;;;;;;17.48;78.20;102916.53;1991116;29;20050;-61
2022/08/10 05:03:34;;;;;;;0.50;0.50;;;;;;;17.48;78.10;102915.75;1990205;29;20066;-63
2022/08/10 05:04:57;;;;;;;0.60;0.60;;;;;;;17.47;78.08;102919.63;1991072;29;20133;-61
2022/08/10 05:05:58;;;;;;;0.57;0.57;;;;;;;17.48;78.40;102916.53;1989729;29;20137;-62
2022/08/10 05:07:03;;;;;;;0.50;0.50;;;;;;;17.51;78.24;102915.06;1990029;29;20075;-62
2022/08/10 05:08:05;;;;;;;0.50;0.50;;;;;;;17.50;78.62;102916.22;1990083;29;20589;-61
2022/08/10 05:09:08;;;;;;;0.60;0.60;;;;;;;17.51;78.47;102923.25;1990402;29;20548;-63
2022/08/10 05:10:11;;;;;;;0.50;0.50;;;;;;;17.52;78.62;102922.16;1990519;29;20432;-61
2022/08/10 05:11:15;;;;;;;0.50;0.50;;;;;;;17.51;78.71;102920.53;1990337;29;20153;-61
2022/08/10 05:12:25;;;;;;;0.50;0.50;;;;;;;17.53;78.69;102918.25;1989835;29;20114;-62
2022/08/10 05:13:29;;;;;;;0.50;0.50;;;;;;;17.57;78.73;102919.97;1989892;29;20063;-64
2022/08/10 05:14:31;;;;;;;0.50;0.50;;;;;;;17.61;78.41;102920.13;1990859;29;20108;-65
2022/08/10 05:15:34;;;;;;;0.50;0.50;;;;;;;17.64;78.38;102917.50;1990216;29;20448;-63
2022/08/10 05:16:36;;;;;;;0.50;0.50;;;;;;;17.67;78.55;102924.22;1990147;29;20084;-63
2022/08/10 05:17:41;;;;;;;0.60;0.60;;;;;;;17.70;78.62;102918.06;1990771;29;20439;-63
2022/08/10 05:19:03;;;;;;;0.60;0.60;;;;;;;17.65;78.64;102923.75;1990238;29;20092;-64
2022/08/10 05:20:08;;;;;;;0.60;0.60;;;;;;;17.70;78.47;102934.47;1990293;29;20058;-62
2022/08/10 05:21:10;;;;;;;0.57;0.57;;;;;;;17.70;78.42;102923.53;1990369;29;20073;-64